Guadalupe — WDG4275 — position and weather

sailwx.info

Track history (hours):
 
Tides and Currents Weather Stations Pressure Air Temp Water Temp Dewpoint Dewpoint Depression Visibility Wind Speed Wind Dir Waves Ship Positions

Guadalupe

Owner: Kirby Inland Marine, LP, Houston, TX. More information available from US FCC via Universal Licensing System and Coast Guard Vessel Documentation Center.

Last reported at 2018-Apr-26 02:50 UTC. Time now 2018-Apr-26 11:12 UTC.
Position N 29°12' W 095°03'.

Length 210 m; draft 3 m.

Type: . MMSI: 367534840.

Date/timePositionNaut miles runAvg speedWind from/ knotsBaromVisibWave heightAir tempDewpointWater temp
2018-Apr-26 02:50N 29°12' W 095°03'2 3.1
2018-Apr-26 02:14N 29°13' W 095°02'1 4.9
2018-Apr-26 01:59N 29°14' W 095°01'3 5.3
2018-Apr-26 01:29N 29°16' W 094°59'3 4.5
2018-Apr-26 00:48N 29°17' W 094°56'2 4.6
2018-Apr-26 00:28N 29°17' W 094°54'3 5.2
2018-Apr-25 23:58N 29°19' W 094°52'6 3.9
2018-Apr-25 22:25N 29°25' W 094°49'2 5.0
2018-Apr-25 22:00N 29°27' W 094°50'2 4.9
2018-Apr-25 21:30N 29°29' W 094°52'2 4.8
2018-Apr-25 21:00N 29°31' W 094°53'3 5.2
2018-Apr-25 20:30N 29°33' W 094°55'3 6.0
2018-Apr-25 20:00N 29°36' W 094°57'3 6.1
2018-Apr-25 19:30N 29°38' W 094°58'3 6.4
2018-Apr-25 19:00N 29°41' W 094°59'3 5.9
2018-Apr-25 18:30N 29°44' W 095°01'3 6.1
2018-Apr-25 18:00N 29°45' W 095°04'3 5.2
2018-Apr-25 17:30N 29°44' W 095°07'3 6.1
2018-Apr-25 16:59N 29°45' W 095°10'3 5.8
2018-Apr-25 16:30N 29°44' W 095°13'0 0.7
2018-Apr-25 15:58N 29°43' W 095°14'0 0.6
2018-Apr-25 15:29N 29°44' W 095°14'0 0.2
2018-Apr-25 15:00N 29°44' W 095°14'0 0.0
2018-Apr-25 12:44N 29°44' W 095°14'0 0.0
2018-Apr-25 12:08N 29°44' W 095°14'0 0.0
2018-Apr-25 07:20N 29°44' W 095°14'0 0.0
2018-Apr-25 03:32N 29°44' W 095°14'0 0.0
2018-Apr-25 03:26N 29°44' W 095°14'0 0.0
2018-Apr-25 02:50N 29°44' W 095°14'0 0.0
2018-Apr-25 02:08N 29°44' W 095°14'0 0.0
2018-Apr-25 01:56N 29°44' W 095°14'0 0.0
2018-Apr-25 01:26N 29°44' W 095°14'0 0.0
2018-Apr-25 00:26N 29°44' W 095°14'0 0.0
2018-Apr-24 22:08N 29°44' W 095°14'0 0.0
2018-Apr-24 18:55N 29°44' W 095°14'0 0.1
2018-Apr-24 18:24N 29°44' W 095°14'0 0.0
2018-Apr-24 17:59N 29°44' W 095°14'0 0.3
2018-Apr-24 17:29N 29°43' W 095°13'0 0.0
2018-Apr-24 17:00N 29°43' W 095°13'3 2.8
2018-Apr-24 16:00N 29°45' W 095°11'2 4.9
2018-Apr-24 15:29N 29°44' W 095°08'2 4.8
2018-Apr-24 15:00N 29°45' W 095°06'1 2.7
2018-Apr-24 14:30N 29°46' W 095°04'0 0.1
2018-Apr-24 14:00N 29°46' W 095°04'0 0.0
2018-Apr-24 13:30N 29°46' W 095°04'0 0.0
2018-Apr-24 13:00N 29°46' W 095°04'0 0.0
2018-Apr-24 12:30N 29°46' W 095°04'0 0.0
2018-Apr-24 11:39N 29°46' W 095°04'0 0.0
2018-Apr-24 10:53N 29°46' W 095°04'0 0.0
2018-Apr-24 10:28N 29°46' W 095°04'0 0.0
2018-Apr-24 10:00N 29°46' W 095°04'0 0.0
2018-Apr-24 09:30N 29°46' W 095°04'0 0.0
2018-Apr-24 09:00N 29°46' W 095°04'0 0.0
2018-Apr-24 08:19N 29°46' W 095°04'0 0.0
2018-Apr-24 08:00N 29°46' W 095°04'0 0.0
2018-Apr-24 07:26N 29°46' W 095°04'0 0.0
2018-Apr-24 07:00N 29°46' W 095°04'0 0.0
2018-Apr-24 06:28N 29°46' W 095°04'0 0.0
2018-Apr-24 05:57N 29°46' W 095°04'0 0.0
2018-Apr-24 05:25N 29°46' W 095°04'0 0.0
2018-Apr-24 04:57N 29°46' W 095°04'1 2.4
2018-Apr-24 04:22N 29°47' W 095°04'0 0.0
2018-Apr-24 01:09N 29°47' W 095°04'1 3.7
2018-Apr-24 01:00N 29°47' W 095°04'1 0.3
2018-Apr-23 20:53N 29°46' W 095°06'1 2.8
2018-Apr-23 20:27N 29°46' W 095°04'0 0.6
2018-Apr-23 20:00N 29°46' W 095°04'3 5.9
2018-Apr-23 19:31N 29°44' W 095°02'3 6.2
2018-Apr-23 19:00N 29°41' W 094°59'4 7.1
2018-Apr-23 18:31N 29°38' W 094°58'4 7.1
2018-Apr-23 18:01N 29°35' W 094°56'4 7.7
2018-Apr-23 17:30N 29°32' W 094°53'4 8.5
2018-Apr-23 17:00N 29°28' W 094°51'8 2.9
2018-Apr-23 14:20N 29°26' W 094°42'2 5.5
2018-Apr-23 14:00N 29°27' W 094°41'3 5.7
2018-Apr-23 13:30N 29°29' W 094°38'3 6.0
2018-Apr-23 12:58N 29°30' W 094°34'3 5.5
2018-Apr-23 12:30N 29°31' W 094°31'3 6.1
2018-Apr-23 12:01N 29°32' W 094°29'3 5.3
2018-Apr-23 11:30N 29°34' W 094°26'0 0.1
2018-Apr-23 11:00N 29°34' W 094°26'0 0.0
2018-Apr-23 10:31N 29°34' W 094°26'1 2.8
2018-Apr-23 10:00N 29°35' W 094°25'2 4.8
2018-Apr-23 09:30N 29°36' W 094°22'3 6.0
2018-Apr-23 09:01N 29°38' W 094°19'2 3.5
2018-Apr-23 08:30N 29°38' W 094°18'2 4.6
2018-Apr-23 08:01N 29°39' W 094°15'3 5.1
2018-Apr-23 07:30N 29°41' W 094°13'3 5.2
2018-Apr-23 06:59N 29°41' W 094°10'3 5.7
2018-Apr-23 06:30N 29°43' W 094°07'3 5.7
2018-Apr-23 06:00N 29°45' W 094°05'3 5.7
2018-Apr-23 05:31N 29°47' W 094°02'2 4.1
2018-Apr-23 05:00N 29°48' W 094°00'3 5.3
2018-Apr-23 04:31N 29°49' W 093°58'4 8.0
2018-Apr-23 04:01N 29°53' W 093°55'5 9.4
2018-Apr-23 03:31N 29°57' W 093°52'3 5.0
2018-Apr-23 03:00N 29°59' W 093°53'0 0.0
2018-Apr-23 02:29N 29°59' W 093°53'0 0.0
2018-Apr-23 02:01N 29°59' W 093°53'0 0.0
2018-Apr-23 01:31N 29°59' W 093°53'0 0.0
2018-Apr-23 01:00N 29°59' W 093°53'0 0.0
2018-Apr-23 00:30N 29°59' W 093°53'0 0.0
2018-Apr-23 00:00N 29°59' W 093°53'0 0.0
2018-Apr-22 23:30N 29°59' W 093°53'0 0.0
2018-Apr-22 23:00N 29°59' W 093°53'0 0.0
2018-Apr-22 22:30N 29°59' W 093°53'0 0.0
2018-Apr-22 22:00N 29°59' W 093°53'0 0.0
2018-Apr-22 21:30N 29°59' W 093°53'0 0.0
2018-Apr-22 21:00N 29°59' W 093°53'0 0.0
2018-Apr-22 20:30N 29°59' W 093°53'0 0.0
2018-Apr-22 20:00N 29°59' W 093°53'0 0.0
2018-Apr-22 19:30N 29°59' W 093°53'0 0.0
2018-Apr-22 19:00N 29°59' W 093°53'0 0.0
2018-Apr-22 18:30N 29°59' W 093°53'0 0.0
2018-Apr-22 18:00N 29°59' W 093°53'0 0.0
2018-Apr-22 17:30N 29°59' W 093°53'0 0.0
2018-Apr-22 17:00N 29°59' W 093°53'0 0.0
2018-Apr-22 16:30N 29°59' W 093°53'0 0.0
2018-Apr-22 16:00N 29°59' W 093°53'0 0.0
2018-Apr-22 15:30N 29°59' W 093°53'0 0.0
2018-Apr-22 14:57N 29°59' W 093°53'0 0.0
2018-Apr-22 14:30N 29°59' W 093°53'0 0.0
2018-Apr-22 14:00N 29°59' W 093°53'0 0.0
2018-Apr-22 13:30N 29°59' W 093°53'0 0.0
2018-Apr-22 13:00N 29°59' W 093°53'0 0.0
2018-Apr-22 12:30N 29°59' W 093°53'0 0.0
2018-Apr-22 12:00N 29°59' W 093°53'0 0.0
2018-Apr-22 11:30N 29°59' W 093°53'0 0.0
2018-Apr-22 11:00N 29°59' W 093°53'0 0.0
2018-Apr-22 10:30N 29°59' W 093°53'0 0.0
2018-Apr-22 10:00N 29°59' W 093°53'0 0.0
2018-Apr-22 09:30N 29°59' W 093°53'0 0.0
2018-Apr-22 09:00N 29°59' W 093°53'0 0.0
2018-Apr-22 08:30N 29°59' W 093°53'0 0.0
2018-Apr-22 07:57N 29°59' W 093°53'0 0.0
2018-Apr-22 07:30N 29°59' W 093°53'0 0.0
2018-Apr-22 07:00N 29°59' W 093°53'0 0.0
2018-Apr-22 06:30N 29°59' W 093°53'0 0.0
2018-Apr-22 06:00N 29°59' W 093°53'0 0.0
2018-Apr-22 05:30N 29°59' W 093°53'0 0.0
2018-Apr-22 05:00N 29°59' W 093°53'0 0.0
2018-Apr-22 04:30N 29°59' W 093°53'0 0.0
2018-Apr-22 04:00N 29°59' W 093°53'0 0.0
2018-Apr-22 03:30N 29°59' W 093°53'0 0.0
2018-Apr-22 03:00N 29°59' W 093°53'0 0.0
2018-Apr-22 02:30N 29°59' W 093°53'0 0.0
2018-Apr-22 02:00N 29°59' W 093°53'0 0.0
2018-Apr-22 01:30N 29°59' W 093°53'0 0.0
2018-Apr-22 01:00N 29°59' W 093°53'0 0.0
2018-Apr-22 00:30N 29°59' W 093°53'0 0.0
2018-Apr-22 00:00N 29°59' W 093°53'0 0.4
2018-Apr-21 23:30N 29°59' W 093°53'2 4.4
2018-Apr-21 23:01N 29°59' W 093°56'0 0.7
2018-Apr-21 22:30N 29°60' W 093°55'0 0.0
2018-Apr-21 22:01N 29°60' W 093°55'0 0.0
2018-Apr-21 21:31N 29°60' W 093°55'0 0.0
2018-Apr-21 21:00N 29°60' W 093°55'0 0.3
2018-Apr-21 20:30N 29°60' W 093°55'0 0.5
2018-Apr-21 20:00N 29°60' W 093°55'1 1.9
2018-Apr-21 19:30N 29°59' W 093°54'3 5.5
2018-Apr-21 19:00N 29°58' W 093°51'0 0.4
2018-Apr-21 18:30N 29°58' W 093°51'1 1.1
2018-Apr-21 18:00N 29°58' W 093°51'3 5.4
2018-Apr-21 17:30N 29°59' W 093°54'1 1.2
2018-Apr-21 16:59N 29°60' W 093°55'0 0.0
2018-Apr-21 16:29N 29°60' W 093°55'0 0.0
2018-Apr-21 15:59N 29°60' W 093°55'0 0.0
2018-Apr-21 15:29N 29°60' W 093°55'0 0.0
2018-Apr-21 14:59N 29°60' W 093°55'0 0.0
2018-Apr-21 14:29N 29°60' W 093°55'0 0.0
2018-Apr-21 13:59N 29°60' W 093°55'0 0.0
2018-Apr-21 13:29N 29°60' W 093°55'0 0.0
2018-Apr-21 12:59N 29°60' W 093°55'0 0.0
2018-Apr-21 12:29N 29°60' W 093°55'0 0.0
2018-Apr-21 11:59N 29°60' W 093°55'0 0.0
2018-Apr-21 11:29N 29°60' W 093°55'0 0.0
2018-Apr-21 10:59N 29°60' W 093°55'0 0.0
2018-Apr-21 10:29N 29°60' W 093°55'0 0.0
2018-Apr-21 09:59N 29°60' W 093°55'0 0.0
2018-Apr-21 09:29N 29°60' W 093°55'0 0.0
2018-Apr-21 08:59N 29°60' W 093°55'0 0.0
2018-Apr-21 08:29N 29°60' W 093°55'0 0.0
2018-Apr-21 07:59N 29°60' W 093°55'0 0.0
2018-Apr-21 07:29N 29°60' W 093°55'0 0.0
2018-Apr-21 06:59N 29°60' W 093°55'0 0.0
2018-Apr-21 06:29N 29°60' W 093°55'0 0.0
2018-Apr-21 05:59N 29°60' W 093°55'0 0.0
2018-Apr-21 05:29N 29°60' W 093°55'0 0.0
2018-Apr-21 04:59N 29°60' W 093°55'0 0.0
2018-Apr-21 04:29N 29°60' W 093°55'0 0.0
2018-Apr-21 03:59N 29°60' W 093°55'0 0.0
2018-Apr-21 03:29N 29°60' W 093°55'0 0.0
2018-Apr-21 02:59N 29°60' W 093°55'0 0.0
2018-Apr-21 02:29N 29°60' W 093°55'0 0.0
2018-Apr-21 01:59N 29°60' W 093°55'0 0.0
2018-Apr-21 01:29N 29°60' W 093°55'0 0.0
2018-Apr-21 00:59N 29°60' W 093°55'0 0.0
2018-Apr-21 00:29N 29°60' W 093°55'0 0.0
2018-Apr-20 23:59N 29°60' W 093°55'0 0.0
2018-Apr-20 23:28N 29°60' W 093°55'0 0.0
2018-Apr-20 22:58N 29°60' W 093°55'0 0.0
2018-Apr-20 22:28N 29°60' W 093°55'0 0.0
2018-Apr-20 21:58N 29°60' W 093°55'0 0.0
2018-Apr-20 21:28N 29°60' W 093°55'0 0.0
2018-Apr-20 20:58N 29°60' W 093°55'0 0.0
2018-Apr-20 20:28N 29°60' W 093°55'0 0.0
2018-Apr-20 19:58N 29°60' W 093°55'0 0.0
2018-Apr-20 19:28N 29°60' W 093°55'0 0.0
2018-Apr-20 18:58N 29°60' W 093°55'0 0.0
2018-Apr-20 18:28N 29°60' W 093°55'0 0.0
2018-Apr-20 18:00N 29°60' W 093°55'0 0.1
2018-Apr-20 17:30N 29°60' W 093°55'0 0.9
2018-Apr-20 17:00N 29°60' W 093°55'0 0.0
2018-Apr-20 16:30N 29°60' W 093°55'0 0.0
2018-Apr-20 16:00N 29°60' W 093°55'0 0.0
2018-Apr-20 15:30N 29°60' W 093°55'0 0.0
2018-Apr-20 15:00N 29°60' W 093°55'0 0.1
2018-Apr-20 14:30N 29°60' W 093°55'0 0.0
2018-Apr-20 14:00N 29°60' W 093°55'0 0.0
2018-Apr-20 13:30N 29°60' W 093°55'0 0.0
2018-Apr-20 13:00N 29°60' W 093°55'0 0.1
2018-Apr-20 12:30N 29°60' W 093°55'0 0.1
2018-Apr-20 12:00N 29°60' W 093°55'0 0.0
2018-Apr-20 11:30N 29°60' W 093°55'0 0.0
2018-Apr-20 11:00N 29°60' W 093°55'0 0.1
2018-Apr-20 10:30N 29°60' W 093°55'0 0.1
2018-Apr-20 10:00N 29°60' W 093°55'0 0.1
2018-Apr-20 09:30N 29°60' W 093°55'0 0.0
2018-Apr-20 09:00N 29°60' W 093°55'0 0.0
2018-Apr-20 08:30N 29°60' W 093°55'0 0.0
2018-Apr-20 08:01N 29°60' W 093°55'0 0.0
2018-Apr-20 07:30N 29°60' W 093°55'0 0.0
2018-Apr-20 07:00N 29°60' W 093°55'0 0.0
2018-Apr-20 06:30N 29°60' W 093°55'0 0.0
2018-Apr-20 06:00N 29°60' W 093°55'0 0.0
2018-Apr-20 05:30N 29°60' W 093°55'0 0.0
2018-Apr-20 05:00N 29°60' W 093°55'0 0.0
2018-Apr-20 04:30N 29°60' W 093°55'0 0.7
2018-Apr-20 04:00N 29°60' W 093°55'0 0.0
2018-Apr-20 03:30N 29°60' W 093°55'0 0.0
2018-Apr-20 03:00N 29°60' W 093°55'0 0.0
2018-Apr-20 02:30N 29°60' W 093°55'0 0.0
2018-Apr-20 02:00N 29°60' W 093°55'0 0.0
2018-Apr-20 01:30N 29°60' W 093°55'0 0.0
2018-Apr-20 01:00N 29°60' W 093°55'0 0.0
2018-Apr-20 00:30N 29°60' W 093°55'0 0.0
2018-Apr-20 00:00N 29°60' W 093°55'0 0.0
2018-Apr-19 23:30N 29°60' W 093°55'0 0.0
2018-Apr-19 23:00N 29°60' W 093°55'0 0.0
2018-Apr-19 22:30N 29°60' W 093°55'0 0.0
2018-Apr-19 22:00N 29°60' W 093°55'0 0.0
2018-Apr-19 21:30N 29°60' W 093°55'0 0.0
2018-Apr-19 21:00N 29°60' W 093°55'0 0.0
2018-Apr-19 20:30N 29°60' W 093°55'0 0.0
2018-Apr-19 20:00N 29°60' W 093°55'0 0.0
2018-Apr-19 19:30N 29°60' W 093°55'0 0.0
2018-Apr-19 19:00N 29°60' W 093°55'0 0.0
2018-Apr-19 18:30N 29°60' W 093°55'0 0.0
2018-Apr-19 18:00N 29°60' W 093°55'0 0.0
2018-Apr-19 17:30N 29°60' W 093°55'2 3.2
2018-Apr-19 17:00N 29°59' W 093°53'2 4.3
2018-Apr-19 16:30N 29°58' W 093°51'0 0.0
2018-Apr-19 15:59N 29°58' W 093°51'0 0.0
2018-Apr-19 15:29N 29°58' W 093°51'0 0.0
2018-Apr-19 14:59N 29°58' W 093°51'0 0.0
2018-Apr-19 14:29N 29°58' W 093°51'0 0.0
2018-Apr-19 13:59N 29°58' W 093°51'0 0.0
2018-Apr-19 13:23N 29°58' W 093°51'0 0.0
2018-Apr-19 12:59N 29°58' W 093°51'0 0.0
2018-Apr-19 12:29N 29°58' W 093°51'0 0.0
2018-Apr-19 11:59N 29°58' W 093°51'0 0.0
2018-Apr-19 11:29N 29°58' W 093°51'0 0.2
2018-Apr-19 11:00N 29°58' W 093°51'3 5.4
2018-Apr-19 10:30N 29°59' W 093°54'1 2.1
2018-Apr-19 10:00N 29°60' W 093°55'1 1.0
2018-Apr-19 09:28N 29°60' W 093°55'0 0.1
2018-Apr-19 08:59N 29°60' W 093°55'1 1.3
2018-Apr-19 08:28N 29°60' W 093°55'0 0.0
2018-Apr-19 07:58N 29°60' W 093°55'0 0.0
2018-Apr-19 07:28N 29°60' W 093°55'0 0.0
2018-Apr-19 06:55N 29°60' W 093°55'0 0.0
2018-Apr-19 06:28N 29°60' W 093°55'0 0.0
2018-Apr-19 05:58N 29°60' W 093°55'0 0.0
2018-Apr-19 05:28N 29°60' W 093°55'0 0.0
2018-Apr-19 04:58N 29°60' W 093°55'0 0.0
2018-Apr-19 04:28N 29°60' W 093°55'0 0.0
2018-Apr-19 03:58N 29°60' W 093°55'0 0.0
2018-Apr-19 03:28N 29°60' W 093°55'0 0.0
2018-Apr-19 02:58N 29°60' W 093°55'0 0.0
2018-Apr-19 02:28N 29°60' W 093°55'0 0.0
2018-Apr-19 01:58N 29°60' W 093°55'0 0.0
2018-Apr-19 01:25N 29°60' W 093°55'0 0.0
2018-Apr-19 00:58N 29°60' W 093°55'0 0.0
2018-Apr-19 00:28N 29°60' W 093°55'0 0.0
2018-Apr-18 23:58N 29°60' W 093°55'0 0.0
2018-Apr-18 23:28N 29°60' W 093°55'0 0.0
2018-Apr-18 22:58N 29°60' W 093°55'0 0.0
2018-Apr-18 22:28N 29°60' W 093°55'0 0.0
2018-Apr-18 21:58N 29°60' W 093°55'0 0.0
2018-Apr-18 21:28N 29°60' W 093°55'0 0.0
2018-Apr-18 20:58N 29°60' W 093°55'0 0.0
2018-Apr-18 20:28N 29°60' W 093°55'0 0.0
2018-Apr-18 19:58N 29°60' W 093°55'0 0.0
2018-Apr-18 19:28N 29°60' W 093°55'0 0.0
2018-Apr-18 18:58N 29°60' W 093°55'0 0.0
2018-Apr-18 18:28N 29°60' W 093°55'0 0.0
2018-Apr-18 17:58N 29°60' W 093°55'0 0.0
2018-Apr-18 17:28N 29°60' W 093°55'0 0.0
2018-Apr-18 16:58N 29°60' W 093°55'0 0.0
2018-Apr-18 16:28N 29°60' W 093°55'0 0.0
2018-Apr-18 15:58N 29°60' W 093°55'0 0.0
2018-Apr-18 15:28N 29°60' W 093°55'0 0.0
2018-Apr-18 14:58N 29°60' W 093°55'0 0.0
2018-Apr-18 14:28N 29°60' W 093°55'0 0.0
2018-Apr-18 13:58N 29°60' W 093°55'0 0.0
2018-Apr-18 13:28N 29°60' W 093°55'0 0.0
2018-Apr-18 12:59N 29°60' W 093°55'0 0.0
2018-Apr-18 12:30N 29°60' W 093°55'0 0.2
2018-Apr-18 12:00N 29°60' W 093°55'0 0.7
2018-Apr-18 11:30N 29°60' W 093°55'0 0.1
2018-Apr-18 11:00N 29°60' W 093°55'0 0.0
2018-Apr-18 10:30N 29°60' W 093°55'0 0.0
2018-Apr-18 10:00N 29°60' W 093°55'0 0.0
2018-Apr-18 09:30N 29°60' W 093°55'0 0.0
2018-Apr-18 09:00N 29°60' W 093°55'0 0.0
2018-Apr-18 08:30N 29°60' W 093°55'0 0.0
2018-Apr-18 08:00N 29°60' W 093°55'0 0.0
2018-Apr-18 07:31N 29°60' W 093°55'0 0.0
2018-Apr-18 07:00N 29°60' W 093°55'0 0.0
2018-Apr-18 06:30N 29°60' W 093°55'0 0.0
2018-Apr-18 05:04N 29°60' W 093°55'0 0.0
2018-Apr-18 05:00N 29°60' W 093°55'0 0.0
2018-Apr-18 04:30N 29°60' W 093°55'0 0.0
2018-Apr-18 04:00N 29°60' W 093°55'0 0.0
2018-Apr-18 03:30N 29°60' W 093°55'0 0.0
2018-Apr-18 03:00N 29°60' W 093°55'0 0.0
2018-Apr-18 02:30N 29°60' W 093°55'0 0.0
2018-Apr-18 02:00N 29°60' W 093°55'0 0.0
2018-Apr-18 01:30N 29°60' W 093°55'0 0.1
2018-Apr-18 01:00N 29°60' W 093°55'0 0.5
2018-Apr-18 00:30N 29°60' W 093°56'0 0.1
2018-Apr-18 00:00N 29°59' W 093°56'0 0.1
2018-Apr-17 23:30N 29°59' W 093°56'0 0.0
2018-Apr-17 23:00N 29°59' W 093°56'0 0.0
2018-Apr-17 22:31N 29°59' W 093°56'0 0.0
2018-Apr-17 22:00N 29°59' W 093°56'1 1.6
2018-Apr-17 21:30N 29°59' W 093°55'0 0.1
2018-Apr-17 21:00N 29°59' W 093°55'0 0.0
2018-Apr-17 20:30N 29°59' W 093°55'0 0.1
2018-Apr-17 20:00N 29°59' W 093°55'0 0.0
2018-Apr-17 19:30N 29°59' W 093°55'1 2.1
2018-Apr-17 19:00N 29°59' W 093°53'2 4.8
2018-Apr-17 18:31N 29°57' W 093°52'3 6.8
2018-Apr-17 18:00N 29°54' W 093°54'3 6.7
2018-Apr-17 17:30N 29°52' W 093°56'3 6.0
2018-Apr-17 17:00N 29°49' W 093°58'2 4.0
2018-Apr-17 16:30N 29°48' W 094°00'3 5.7
2018-Apr-17 16:00N 29°46' W 094°02'3 5.1
2018-Apr-17 15:30N 29°45' W 094°05'3 5.3
2018-Apr-17 15:00N 29°43' W 094°07'3 5.2
2018-Apr-17 14:30N 29°41' W 094°10'2 4.9
2018-Apr-17 14:00N 29°41' W 094°12'2 4.1
2018-Apr-17 13:30N 29°40' W 094°14'2 4.9
2018-Apr-17 13:00N 29°39' W 094°17'2 4.9
2018-Apr-17 12:30N 29°38' W 094°19'3 4.9
2018-Apr-17 11:59N 29°36' W 094°22'2 3.6
2018-Apr-17 11:30N 29°36' W 094°24'2 4.2
2018-Apr-17 10:59N 29°34' W 094°25'2 4.7
2018-Apr-17 10:30N 29°33' W 094°28'3 4.8
2018-Apr-17 09:58N 29°31' W 094°30'2 4.0
2018-Apr-17 09:30N 29°31' W 094°32'0 0.3
2018-Apr-17 09:00N 29°31' W 094°32'2 4.3
2018-Apr-17 08:30N 29°30' W 094°34'3 4.8
2018-Apr-17 07:54N 29°29' W 094°37'2 4.9
2018-Apr-17 07:26N 29°28' W 094°39'2 4.8
2018-Apr-17 07:00N 29°27' W 094°42'2 4.4
2018-Apr-17 06:30N 29°25' W 094°43'2 3.1
2018-Apr-17 06:00N 29°24' W 094°45'2 4.0
2018-Apr-17 05:30N 29°23' W 094°46'2 2.7
2018-Apr-17 04:51N 29°22' W 094°48'2 6.5
2018-Apr-17 04:30N 29°24' W 094°49'3 6.7
2018-Apr-17 04:00N 29°27' W 094°51'3 7.1
2018-Apr-17 03:30N 29°30' W 094°53'4 7.0
2018-Apr-17 03:00N 29°33' W 094°55'4 7.5
2018-Apr-17 02:30N 29°36' W 094°57'3 5.3
2018-Apr-17 02:00N 29°39' W 094°58'3 6.9
2018-Apr-17 01:30N 29°42' W 095°00'2 4.6
2018-Apr-17 01:00N 29°44' W 095°02'1 2.0
2018-Apr-17 00:30N 29°44' W 095°03'0 0.0
2018-Apr-16 18:01N 29°44' W 095°03'0 0.0
2018-Apr-16 17:40N 29°44' W 095°03'0 0.0
2018-Apr-16 17:25N 29°44' W 095°03'0 0.0
2018-Apr-16 16:55N 29°44' W 095°03'0 0.0
2018-Apr-16 16:28N 29°44' W 095°03'0 0.0
2018-Apr-16 15:52N 29°44' W 095°03'0 0.0
2018-Apr-16 13:40N 29°44' W 095°03'0 0.0
2018-Apr-16 13:04N 29°44' W 095°03'0 0.0
2018-Apr-16 12:49N 29°44' W 095°03'0 0.0
2018-Apr-16 12:22N 29°44' W 095°03'0 0.0
2018-Apr-16 10:37N 29°44' W 095°03'0 0.0
2018-Apr-16 05:55N 29°44' W 095°03'0 0.0
2018-Apr-16 05:28N 29°44' W 095°03'  
Track history (hours):
 
Tides and Currents Weather Stations Pressure Air Temp Water Temp Dewpoint Dewpoint Depression Visibility Wind Speed Wind Dir Waves Ship Positions

Guadalupe

Owner: Kirby Inland Marine, LP, Houston, TX. More information available from US FCC via Universal Licensing System and Coast Guard Vessel Documentation Center.

Last reported at 2018-Apr-26 02:50 UTC. Time now 2018-Apr-26 11:12 UTC.
Position N 29°12' W 095°03'.

Length 210 m; draft 3 m.

Type: . MMSI: 367534840.

Date/timePositionNaut miles runAvg speedWind from/ knotsBaromVisibWave heightAir tempDewpointWater temp
2018-Apr-26 02:50N 29°12' W 095°03'2 3.1
2018-Apr-26 02:14N 29°13' W 095°02'1 4.9
2018-Apr-26 01:59N 29°14' W 095°01'3 5.3
2018-Apr-26 01:29N 29°16' W 094°59'3 4.5
2018-Apr-26 00:48N 29°17' W 094°56'2 4.6
2018-Apr-26 00:28N 29°17' W 094°54'3 5.2
2018-Apr-25 23:58N 29°19' W 094°52'6 3.9
2018-Apr-25 22:25N 29°25' W 094°49'2 5.0
2018-Apr-25 22:00N 29°27' W 094°50'2 4.9
2018-Apr-25 21:30N 29°29' W 094°52'2 4.8
2018-Apr-25 21:00N 29°31' W 094°53'3 5.2
2018-Apr-25 20:30N 29°33' W 094°55'3 6.0
2018-Apr-25 20:00N 29°36' W 094°57'3 6.1
2018-Apr-25 19:30N 29°38' W 094°58'3 6.4
2018-Apr-25 19:00N 29°41' W 094°59'3 5.9
2018-Apr-25 18:30N 29°44' W 095°01'3 6.1
2018-Apr-25 18:00N 29°45' W 095°04'3 5.2
2018-Apr-25 17:30N 29°44' W 095°07'3 6.1
2018-Apr-25 16:59N 29°45' W 095°10'3 5.8
2018-Apr-25 16:30N 29°44' W 095°13'0 0.7
2018-Apr-25 15:58N 29°43' W 095°14'0 0.6
2018-Apr-25 15:29N 29°44' W 095°14'0 0.2
2018-Apr-25 15:00N 29°44' W 095°14'0 0.0
2018-Apr-25 12:44N 29°44' W 095°14'0 0.0
2018-Apr-25 12:08N 29°44' W 095°14'0 0.0
2018-Apr-25 07:20N 29°44' W 095°14'0 0.0
2018-Apr-25 03:32N 29°44' W 095°14'0 0.0
2018-Apr-25 03:26N 29°44' W 095°14'0 0.0
2018-Apr-25 02:50N 29°44' W 095°14'0 0.0
2018-Apr-25 02:08N 29°44' W 095°14'0 0.0
2018-Apr-25 01:56N 29°44' W 095°14'0 0.0
2018-Apr-25 01:26N 29°44' W 095°14'0 0.0
2018-Apr-25 00:26N 29°44' W 095°14'0 0.0
2018-Apr-24 22:08N 29°44' W 095°14'0 0.0
2018-Apr-24 18:55N 29°44' W 095°14'0 0.1
2018-Apr-24 18:24N 29°44' W 095°14'0 0.0
2018-Apr-24 17:59N 29°44' W 095°14'0 0.3
2018-Apr-24 17:29N 29°43' W 095°13'0 0.0
2018-Apr-24 17:00N 29°43' W 095°13'3 2.8
2018-Apr-24 16:00N 29°45' W 095°11'2 4.9
2018-Apr-24 15:29N 29°44' W 095°08'2 4.8
2018-Apr-24 15:00N 29°45' W 095°06'1 2.7
2018-Apr-24 14:30N 29°46' W 095°04'0 0.1
2018-Apr-24 14:00N 29°46' W 095°04'0 0.0
2018-Apr-24 13:30N 29°46' W 095°04'0 0.0
2018-Apr-24 13:00N 29°46' W 095°04'0 0.0
2018-Apr-24 12:30N 29°46' W 095°04'0 0.0
2018-Apr-24 11:39N 29°46' W 095°04'0 0.0
2018-Apr-24 10:53N 29°46' W 095°04'0 0.0
2018-Apr-24 10:28N 29°46' W 095°04'0 0.0
2018-Apr-24 10:00N 29°46' W 095°04'0 0.0
2018-Apr-24 09:30N 29°46' W 095°04'0 0.0
2018-Apr-24 09:00N 29°46' W 095°04'0 0.0
2018-Apr-24 08:19N 29°46' W 095°04'0 0.0
2018-Apr-24 08:00N 29°46' W 095°04'0 0.0
2018-Apr-24 07:26N 29°46' W 095°04'0 0.0
2018-Apr-24 07:00N 29°46' W 095°04'0 0.0
2018-Apr-24 06:28N 29°46' W 095°04'0 0.0
2018-Apr-24 05:57N 29°46' W 095°04'0 0.0
2018-Apr-24 05:25N 29°46' W 095°04'0 0.0
2018-Apr-24 04:57N 29°46' W 095°04'1 2.4
2018-Apr-24 04:22N 29°47' W 095°04'0 0.0
2018-Apr-24 01:09N 29°47' W 095°04'1 3.7
2018-Apr-24 01:00N 29°47' W 095°04'1 0.3
2018-Apr-23 20:53N 29°46' W 095°06'1 2.8
2018-Apr-23 20:27N 29°46' W 095°04'0 0.6
2018-Apr-23 20:00N 29°46' W 095°04'3 5.9
2018-Apr-23 19:31N 29°44' W 095°02'3 6.2
2018-Apr-23 19:00N 29°41' W 094°59'4 7.1
2018-Apr-23 18:31N 29°38' W 094°58'4 7.1
2018-Apr-23 18:01N 29°35' W 094°56'4 7.7
2018-Apr-23 17:30N 29°32' W 094°53'4 8.5
2018-Apr-23 17:00N 29°28' W 094°51'8 2.9
2018-Apr-23 14:20N 29°26' W 094°42'2 5.5
2018-Apr-23 14:00N 29°27' W 094°41'3 5.7
2018-Apr-23 13:30N 29°29' W 094°38'3 6.0
2018-Apr-23 12:58N 29°30' W 094°34'3 5.5
2018-Apr-23 12:30N 29°31' W 094°31'3 6.1
2018-Apr-23 12:01N 29°32' W 094°29'3 5.3
2018-Apr-23 11:30N 29°34' W 094°26'0 0.1
2018-Apr-23 11:00N 29°34' W 094°26'0 0.0
2018-Apr-23 10:31N 29°34' W 094°26'1 2.8
2018-Apr-23 10:00N 29°35' W 094°25'2 4.8
2018-Apr-23 09:30N 29°36' W 094°22'3 6.0
2018-Apr-23 09:01N 29°38' W 094°19'2 3.5
2018-Apr-23 08:30N 29°38' W 094°18'2 4.6
2018-Apr-23 08:01N 29°39' W 094°15'3 5.1
2018-Apr-23 07:30N 29°41' W 094°13'3 5.2
2018-Apr-23 06:59N 29°41' W 094°10'3 5.7
2018-Apr-23 06:30N 29°43' W 094°07'3 5.7
2018-Apr-23 06:00N 29°45' W 094°05'3 5.7
2018-Apr-23 05:31N 29°47' W 094°02'2 4.1
2018-Apr-23 05:00N 29°48' W 094°00'3 5.3
2018-Apr-23 04:31N 29°49' W 093°58'4 8.0
2018-Apr-23 04:01N 29°53' W 093°55'5 9.4
2018-Apr-23 03:31N 29°57' W 093°52'3 5.0
2018-Apr-23 03:00N 29°59' W 093°53'0 0.0
2018-Apr-23 02:29N 29°59' W 093°53'0 0.0
2018-Apr-23 02:01N 29°59' W 093°53'0 0.0
2018-Apr-23 01:31N 29°59' W 093°53'0 0.0
2018-Apr-23 01:00N 29°59' W 093°53'0 0.0
2018-Apr-23 00:30N 29°59' W 093°53'0 0.0
2018-Apr-23 00:00N 29°59' W 093°53'0 0.0
2018-Apr-22 23:30N 29°59' W 093°53'0 0.0
2018-Apr-22 23:00N 29°59' W 093°53'0 0.0
2018-Apr-22 22:30N 29°59' W 093°53'0 0.0
2018-Apr-22 22:00N 29°59' W 093°53'0 0.0
2018-Apr-22 21:30N 29°59' W 093°53'0 0.0
2018-Apr-22 21:00N 29°59' W 093°53'0 0.0
2018-Apr-22 20:30N 29°59' W 093°53'0 0.0
2018-Apr-22 20:00N 29°59' W 093°53'0 0.0
2018-Apr-22 19:30N 29°59' W 093°53'0 0.0
2018-Apr-22 19:00N 29°59' W 093°53'0 0.0
2018-Apr-22 18:30N 29°59' W 093°53'0 0.0
2018-Apr-22 18:00N 29°59' W 093°53'0 0.0
2018-Apr-22 17:30N 29°59' W 093°53'0 0.0
2018-Apr-22 17:00N 29°59' W 093°53'0 0.0
2018-Apr-22 16:30N 29°59' W 093°53'0 0.0
2018-Apr-22 16:00N 29°59' W 093°53'0 0.0
2018-Apr-22 15:30N 29°59' W 093°53'0 0.0
2018-Apr-22 14:57N 29°59' W 093°53'0 0.0
2018-Apr-22 14:30N 29°59' W 093°53'0 0.0
2018-Apr-22 14:00N 29°59' W 093°53'0 0.0
2018-Apr-22 13:30N 29°59' W 093°53'0 0.0
2018-Apr-22 13:00N 29°59' W 093°53'0 0.0
2018-Apr-22 12:30N 29°59' W 093°53'0 0.0
2018-Apr-22 12:00N 29°59' W 093°53'0 0.0
2018-Apr-22 11:30N 29°59' W 093°53'0 0.0
2018-Apr-22 11:00N 29°59' W 093°53'0 0.0
2018-Apr-22 10:30N 29°59' W 093°53'0 0.0
2018-Apr-22 10:00N 29°59' W 093°53'0 0.0
2018-Apr-22 09:30N 29°59' W 093°53'0 0.0
2018-Apr-22 09:00N 29°59' W 093°53'0 0.0
2018-Apr-22 08:30N 29°59' W 093°53'0 0.0
2018-Apr-22 07:57N 29°59' W 093°53'0 0.0
2018-Apr-22 07:30N 29°59' W 093°53'0 0.0
2018-Apr-22 07:00N 29°59' W 093°53'0 0.0
2018-Apr-22 06:30N 29°59' W 093°53'0 0.0
2018-Apr-22 06:00N 29°59' W 093°53'0 0.0
2018-Apr-22 05:30N 29°59' W 093°53'0 0.0
2018-Apr-22 05:00N 29°59' W 093°53'0 0.0
2018-Apr-22 04:30N 29°59' W 093°53'0 0.0
2018-Apr-22 04:00N 29°59' W 093°53'0 0.0
2018-Apr-22 03:30N 29°59' W 093°53'0 0.0
2018-Apr-22 03:00N 29°59' W 093°53'0 0.0
2018-Apr-22 02:30N 29°59' W 093°53'0 0.0
2018-Apr-22 02:00N 29°59' W 093°53'0 0.0
2018-Apr-22 01:30N 29°59' W 093°53'0 0.0
2018-Apr-22 01:00N 29°59' W 093°53'0 0.0
2018-Apr-22 00:30N 29°59' W 093°53'0 0.0
2018-Apr-22 00:00N 29°59' W 093°53'0 0.4
2018-Apr-21 23:30N 29°59' W 093°53'2 4.4
2018-Apr-21 23:01N 29°59' W 093°56'0 0.7
2018-Apr-21 22:30N 29°60' W 093°55'0 0.0
2018-Apr-21 22:01N 29°60' W 093°55'0 0.0
2018-Apr-21 21:31N 29°60' W 093°55'0 0.0
2018-Apr-21 21:00N 29°60' W 093°55'0 0.3
2018-Apr-21 20:30N 29°60' W 093°55'0 0.5
2018-Apr-21 20:00N 29°60' W 093°55'1 1.9
2018-Apr-21 19:30N 29°59' W 093°54'3 5.5
2018-Apr-21 19:00N 29°58' W 093°51'0 0.4
2018-Apr-21 18:30N 29°58' W 093°51'1 1.1
2018-Apr-21 18:00N 29°58' W 093°51'3 5.4
2018-Apr-21 17:30N 29°59' W 093°54'1 1.2
2018-Apr-21 16:59N 29°60' W 093°55'0 0.0
2018-Apr-21 16:29N 29°60' W 093°55'0 0.0
2018-Apr-21 15:59N 29°60' W 093°55'0 0.0
2018-Apr-21 15:29N 29°60' W 093°55'0 0.0
2018-Apr-21 14:59N 29°60' W 093°55'0 0.0
2018-Apr-21 14:29N 29°60' W 093°55'0 0.0
2018-Apr-21 13:59N 29°60' W 093°55'0 0.0
2018-Apr-21 13:29N 29°60' W 093°55'0 0.0
2018-Apr-21 12:59N 29°60' W 093°55'0 0.0
2018-Apr-21 12:29N 29°60' W 093°55'0 0.0
2018-Apr-21 11:59N 29°60' W 093°55'0 0.0
2018-Apr-21 11:29N 29°60' W 093°55'0 0.0
2018-Apr-21 10:59N 29°60' W 093°55'0 0.0
2018-Apr-21 10:29N 29°60' W 093°55'0 0.0
2018-Apr-21 09:59N 29°60' W 093°55'0 0.0
2018-Apr-21 09:29N 29°60' W 093°55'0 0.0
2018-Apr-21 08:59N 29°60' W 093°55'0 0.0
2018-Apr-21 08:29N 29°60' W 093°55'0 0.0
2018-Apr-21 07:59N 29°60' W 093°55'0 0.0
2018-Apr-21 07:29N 29°60' W 093°55'0 0.0
2018-Apr-21 06:59N 29°60' W 093°55'0 0.0
2018-Apr-21 06:29N 29°60' W 093°55'0 0.0
2018-Apr-21 05:59N 29°60' W 093°55'0 0.0
2018-Apr-21 05:29N 29°60' W 093°55'0 0.0
2018-Apr-21 04:59N 29°60' W 093°55'0 0.0
2018-Apr-21 04:29N 29°60' W 093°55'0 0.0
2018-Apr-21 03:59N 29°60' W 093°55'0 0.0
2018-Apr-21 03:29N 29°60' W 093°55'0 0.0
2018-Apr-21 02:59N 29°60' W 093°55'0 0.0
2018-Apr-21 02:29N 29°60' W 093°55'0 0.0
2018-Apr-21 01:59N 29°60' W 093°55'0 0.0
2018-Apr-21 01:29N 29°60' W 093°55'0 0.0
2018-Apr-21 00:59N 29°60' W 093°55'0 0.0
2018-Apr-21 00:29N 29°60' W 093°55'0 0.0
2018-Apr-20 23:59N 29°60' W 093°55'0 0.0
2018-Apr-20 23:28N 29°60' W 093°55'0 0.0
2018-Apr-20 22:58N 29°60' W 093°55'0 0.0
2018-Apr-20 22:28N 29°60' W 093°55'0 0.0
2018-Apr-20 21:58N 29°60' W 093°55'0 0.0
2018-Apr-20 21:28N 29°60' W 093°55'0 0.0
2018-Apr-20 20:58N 29°60' W 093°55'0 0.0
2018-Apr-20 20:28N 29°60' W 093°55'0 0.0
2018-Apr-20 19:58N 29°60' W 093°55'0 0.0
2018-Apr-20 19:28N 29°60' W 093°55'0 0.0
2018-Apr-20 18:58N 29°60' W 093°55'0 0.0
2018-Apr-20 18:28N 29°60' W 093°55'0 0.0
2018-Apr-20 18:00N 29°60' W 093°55'0 0.1
2018-Apr-20 17:30N 29°60' W 093°55'0 0.9
2018-Apr-20 17:00N 29°60' W 093°55'0 0.0
2018-Apr-20 16:30N 29°60' W 093°55'0 0.0
2018-Apr-20 16:00N 29°60' W 093°55'0 0.0
2018-Apr-20 15:30N 29°60' W 093°55'0 0.0
2018-Apr-20 15:00N 29°60' W 093°55'0 0.1
2018-Apr-20 14:30N 29°60' W 093°55'0 0.0
2018-Apr-20 14:00N 29°60' W 093°55'0 0.0
2018-Apr-20 13:30N 29°60' W 093°55'0 0.0
2018-Apr-20 13:00N 29°60' W 093°55'0 0.1
2018-Apr-20 12:30N 29°60' W 093°55'0 0.1
2018-Apr-20 12:00N 29°60' W 093°55'0 0.0
2018-Apr-20 11:30N 29°60' W 093°55'0 0.0
2018-Apr-20 11:00N 29°60' W 093°55'0 0.1
2018-Apr-20 10:30N 29°60' W 093°55'0 0.1
2018-Apr-20 10:00N 29°60' W 093°55'0 0.1
2018-Apr-20 09:30N 29°60' W 093°55'0 0.0
2018-Apr-20 09:00N 29°60' W 093°55'0 0.0
2018-Apr-20 08:30N 29°60' W 093°55'0 0.0
2018-Apr-20 08:01N 29°60' W 093°55'0 0.0
2018-Apr-20 07:30N 29°60' W 093°55'0 0.0
2018-Apr-20 07:00N 29°60' W 093°55'0 0.0
2018-Apr-20 06:30N 29°60' W 093°55'0 0.0
2018-Apr-20 06:00N 29°60' W 093°55'0 0.0
2018-Apr-20 05:30N 29°60' W 093°55'0 0.0
2018-Apr-20 05:00N 29°60' W 093°55'0 0.0
2018-Apr-20 04:30N 29°60' W 093°55'0 0.7
2018-Apr-20 04:00N 29°60' W 093°55'0 0.0
2018-Apr-20 03:30N 29°60' W 093°55'0 0.0
2018-Apr-20 03:00N 29°60' W 093°55'0 0.0
2018-Apr-20 02:30N 29°60' W 093°55'0 0.0
2018-Apr-20 02:00N 29°60' W 093°55'0 0.0
2018-Apr-20 01:30N 29°60' W 093°55'0 0.0
2018-Apr-20 01:00N 29°60' W 093°55'0 0.0
2018-Apr-20 00:30N 29°60' W 093°55'0 0.0
2018-Apr-20 00:00N 29°60' W 093°55'0 0.0
2018-Apr-19 23:30N 29°60' W 093°55'0 0.0
2018-Apr-19 23:00N 29°60' W 093°55'0 0.0
2018-Apr-19 22:30N 29°60' W 093°55'0 0.0
2018-Apr-19 22:00N 29°60' W 093°55'0 0.0
2018-Apr-19 21:30N 29°60' W 093°55'0 0.0
2018-Apr-19 21:00N 29°60' W 093°55'0 0.0
2018-Apr-19 20:30N 29°60' W 093°55'0 0.0
2018-Apr-19 20:00N 29°60' W 093°55'0 0.0
2018-Apr-19 19:30N 29°60' W 093°55'0 0.0
2018-Apr-19 19:00N 29°60' W 093°55'0 0.0
2018-Apr-19 18:30N 29°60' W 093°55'0 0.0
2018-Apr-19 18:00N 29°60' W 093°55'0 0.0
2018-Apr-19 17:30N 29°60' W 093°55'2 3.2
2018-Apr-19 17:00N 29°59' W 093°53'2 4.3
2018-Apr-19 16:30N 29°58' W 093°51'0 0.0
2018-Apr-19 15:59N 29°58' W 093°51'0 0.0
2018-Apr-19 15:29N 29°58' W 093°51'0 0.0
2018-Apr-19 14:59N 29°58' W 093°51'0 0.0
2018-Apr-19 14:29N 29°58' W 093°51'0 0.0
2018-Apr-19 13:59N 29°58' W 093°51'0 0.0
2018-Apr-19 13:23N 29°58' W 093°51'0 0.0
2018-Apr-19 12:59N 29°58' W 093°51'0 0.0
2018-Apr-19 12:29N 29°58' W 093°51'0 0.0
2018-Apr-19 11:59N 29°58' W 093°51'0 0.0
2018-Apr-19 11:29N 29°58' W 093°51'0 0.2
2018-Apr-19 11:00N 29°58' W 093°51'3 5.4
2018-Apr-19 10:30N 29°59' W 093°54'1 2.1
2018-Apr-19 10:00N 29°60' W 093°55'1 1.0
2018-Apr-19 09:28N 29°60' W 093°55'0 0.1
2018-Apr-19 08:59N 29°60' W 093°55'1 1.3
2018-Apr-19 08:28N 29°60' W 093°55'0 0.0
2018-Apr-19 07:58N 29°60' W 093°55'0 0.0
2018-Apr-19 07:28N 29°60' W 093°55'0 0.0
2018-Apr-19 06:55N 29°60' W 093°55'0 0.0
2018-Apr-19 06:28N 29°60' W 093°55'0 0.0
2018-Apr-19 05:58N 29°60' W 093°55'0 0.0
2018-Apr-19 05:28N 29°60' W 093°55'0 0.0
2018-Apr-19 04:58N 29°60' W 093°55'0 0.0
2018-Apr-19 04:28N 29°60' W 093°55'0 0.0
2018-Apr-19 03:58N 29°60' W 093°55'0 0.0
2018-Apr-19 03:28N 29°60' W 093°55'0 0.0
2018-Apr-19 02:58N 29°60' W 093°55'0 0.0
2018-Apr-19 02:28N 29°60' W 093°55'0 0.0
2018-Apr-19 01:58N 29°60' W 093°55'0 0.0
2018-Apr-19 01:25N 29°60' W 093°55'0 0.0
2018-Apr-19 00:58N 29°60' W 093°55'0 0.0
2018-Apr-19 00:28N 29°60' W 093°55'0 0.0
2018-Apr-18 23:58N 29°60' W 093°55'0 0.0
2018-Apr-18 23:28N 29°60' W 093°55'0 0.0
2018-Apr-18 22:58N 29°60' W 093°55'0 0.0
2018-Apr-18 22:28N 29°60' W 093°55'0 0.0
2018-Apr-18 21:58N 29°60' W 093°55'0 0.0
2018-Apr-18 21:28N 29°60' W 093°55'0 0.0
2018-Apr-18 20:58N 29°60' W 093°55'0 0.0
2018-Apr-18 20:28N 29°60' W 093°55'0 0.0
2018-Apr-18 19:58N 29°60' W 093°55'0 0.0
2018-Apr-18 19:28N 29°60' W 093°55'0 0.0
2018-Apr-18 18:58N 29°60' W 093°55'0 0.0
2018-Apr-18 18:28N 29°60' W 093°55'0 0.0
2018-Apr-18 17:58N 29°60' W 093°55'0 0.0
2018-Apr-18 17:28N 29°60' W 093°55'0 0.0
2018-Apr-18 16:58N 29°60' W 093°55'0 0.0
2018-Apr-18 16:28N 29°60' W 093°55'0 0.0
2018-Apr-18 15:58N 29°60' W 093°55'0 0.0
2018-Apr-18 15:28N 29°60' W 093°55'0 0.0
2018-Apr-18 14:58N 29°60' W 093°55'0 0.0
2018-Apr-18 14:28N 29°60' W 093°55'0 0.0
2018-Apr-18 13:58N 29°60' W 093°55'0 0.0
2018-Apr-18 13:28N 29°60' W 093°55'0 0.0
2018-Apr-18 12:59N 29°60' W 093°55'0 0.0
2018-Apr-18 12:30N 29°60' W 093°55'0 0.2
2018-Apr-18 12:00N 29°60' W 093°55'0 0.7
2018-Apr-18 11:30N 29°60' W 093°55'0 0.1
2018-Apr-18 11:00N 29°60' W 093°55'0 0.0
2018-Apr-18 10:30N 29°60' W 093°55'0 0.0
2018-Apr-18 10:00N 29°60' W 093°55'0 0.0
2018-Apr-18 09:30N 29°60' W 093°55'0 0.0
2018-Apr-18 09:00N 29°60' W 093°55'0 0.0
2018-Apr-18 08:30N 29°60' W 093°55'0 0.0
2018-Apr-18 08:00N 29°60' W 093°55'0 0.0
2018-Apr-18 07:31N 29°60' W 093°55'0 0.0
2018-Apr-18 07:00N 29°60' W 093°55'0 0.0
2018-Apr-18 06:30N 29°60' W 093°55'0 0.0
2018-Apr-18 05:04N 29°60' W 093°55'0 0.0
2018-Apr-18 05:00N 29°60' W 093°55'0 0.0
2018-Apr-18 04:30N 29°60' W 093°55'0 0.0
2018-Apr-18 04:00N 29°60' W 093°55'0 0.0
2018-Apr-18 03:30N 29°60' W 093°55'0 0.0
2018-Apr-18 03:00N 29°60' W 093°55'0 0.0
2018-Apr-18 02:30N 29°60' W 093°55'0 0.0
2018-Apr-18 02:00N 29°60' W 093°55'0 0.0
2018-Apr-18 01:30N 29°60' W 093°55'0 0.1
2018-Apr-18 01:00N 29°60' W 093°55'0 0.5
2018-Apr-18 00:30N 29°60' W 093°56'0 0.1
2018-Apr-18 00:00N 29°59' W 093°56'0 0.1
2018-Apr-17 23:30N 29°59' W 093°56'0 0.0
2018-Apr-17 23:00N 29°59' W 093°56'0 0.0
2018-Apr-17 22:31N 29°59' W 093°56'0 0.0
2018-Apr-17 22:00N 29°59' W 093°56'1 1.6
2018-Apr-17 21:30N 29°59' W 093°55'0 0.1
2018-Apr-17 21:00N 29°59' W 093°55'0 0.0
2018-Apr-17 20:30N 29°59' W 093°55'0 0.1
2018-Apr-17 20:00N 29°59' W 093°55'0 0.0
2018-Apr-17 19:30N 29°59' W 093°55'1 2.1
2018-Apr-17 19:00N 29°59' W 093°53'2 4.8
2018-Apr-17 18:31N 29°57' W 093°52'3 6.8
2018-Apr-17 18:00N 29°54' W 093°54'3 6.7
2018-Apr-17 17:30N 29°52' W 093°56'3 6.0
2018-Apr-17 17:00N 29°49' W 093°58'2 4.0
2018-Apr-17 16:30N 29°48' W 094°00'3 5.7
2018-Apr-17 16:00N 29°46' W 094°02'3 5.1
2018-Apr-17 15:30N 29°45' W 094°05'3 5.3
2018-Apr-17 15:00N 29°43' W 094°07'3 5.2
2018-Apr-17 14:30N 29°41' W 094°10'2 4.9
2018-Apr-17 14:00N 29°41' W 094°12'2 4.1
2018-Apr-17 13:30N 29°40' W 094°14'2 4.9
2018-Apr-17 13:00N 29°39' W 094°17'2 4.9
2018-Apr-17 12:30N 29°38' W 094°19'3 4.9
2018-Apr-17 11:59N 29°36' W 094°22'2 3.6
2018-Apr-17 11:30N 29°36' W 094°24'2 4.2
2018-Apr-17 10:59N 29°34' W 094°25'2 4.7
2018-Apr-17 10:30N 29°33' W 094°28'3 4.8
2018-Apr-17 09:58N 29°31' W 094°30'2 4.0
2018-Apr-17 09:30N 29°31' W 094°32'0 0.3
2018-Apr-17 09:00N 29°31' W 094°32'2 4.3
2018-Apr-17 08:30N 29°30' W 094°34'3 4.8
2018-Apr-17 07:54N 29°29' W 094°37'2 4.9
2018-Apr-17 07:26N 29°28' W 094°39'2 4.8
2018-Apr-17 07:00N 29°27' W 094°42'2 4.4
2018-Apr-17 06:30N 29°25' W 094°43'2 3.1
2018-Apr-17 06:00N 29°24' W 094°45'2 4.0
2018-Apr-17 05:30N 29°23' W 094°46'2 2.7
2018-Apr-17 04:51N 29°22' W 094°48'2 6.5
2018-Apr-17 04:30N 29°24' W 094°49'3 6.7
2018-Apr-17 04:00N 29°27' W 094°51'3 7.1
2018-Apr-17 03:30N 29°30' W 094°53'4 7.0
2018-Apr-17 03:00N 29°33' W 094°55'4 7.5
2018-Apr-17 02:30N 29°36' W 094°57'3 5.3
2018-Apr-17 02:00N 29°39' W 094°58'3 6.9
2018-Apr-17 01:30N 29°42' W 095°00'2 4.6
2018-Apr-17 01:00N 29°44' W 095°02'1 2.0
2018-Apr-17 00:30N 29°44' W 095°03'0 0.0
2018-Apr-16 18:01N 29°44' W 095°03'0 0.0
2018-Apr-16 17:40N 29°44' W 095°03'0 0.0
2018-Apr-16 17:25N 29°44' W 095°03'0 0.0
2018-Apr-16 16:55N 29°44' W 095°03'0 0.0
2018-Apr-16 16:28N 29°44' W 095°03'0 0.0
2018-Apr-16 15:52N 29°44' W 095°03'0 0.0
2018-Apr-16 13:40N 29°44' W 095°03'0 0.0
2018-Apr-16 13:04N 29°44' W 095°03'0 0.0
2018-Apr-16 12:49N 29°44' W 095°03'0 0.0
2018-Apr-16 12:22N 29°44' W 095°03'0 0.0
2018-Apr-16 10:37N 29°44' W 095°03'0 0.0
2018-Apr-16 05:55N 29°44' W 095°03'0 0.0
2018-Apr-16 05:28N 29°44' W 095°03'  

Dump ship's entire track history